<?xml version="1.0" encoding="UTF-8" standalone="no" ?>
<gpx xmlns="http://www.topografix.com/GPX/1/1" xmlns:xsi="http://www.w3.org/2001/XMLSchema-instance" xsi:schemaLocation="http://www.topografix.com/GPX/1/1 http://www.topografix.com/GPX/1/1/gpx.xsd" version="1.1" creator="VisuGPX - https://www.visugpx.com">
  <metadata>
    <name>ASLPM marche à AYTRE du 9 Mars 2015</name>
    <desc><![CDATA[ASLPM marche Aytré Angoulins du 9 Mars 2015.]]></desc>
  </metadata>
  <trk>
    <name><![CDATA[Aytré Course à pied]]></name>
    <trkseg>
      <trkpt lat="46.12732" lon="-1.12796">
        <ele>4</ele>
        <time>2015-03-09T08:03:15.000Z</time>
      </trkpt>
      <trkpt lat="46.12732" lon="-1.12796">
        <ele>4</ele>
        <time>2015-03-09T08:03:16.000Z</time>
      </trkpt>
      <trkpt lat="46.12731" lon="-1.12796">
        <ele>4</ele>
        <time>2015-03-09T08:03:23.000Z</time>
      </trkpt>
      <trkpt lat="46.12731" lon="-1.12796">
        <ele>4</ele>
        <time>2015-03-09T08:03:25.000Z</time>
      </trkpt>
      <trkpt lat="46.12731" lon="-1.12797">
        <ele>4</ele>
        <time>2015-03-09T08:03:27.000Z</time>
      </trkpt>
      <trkpt lat="46.12731" lon="-1.12797">
        <ele>4</ele>
        <time>2015-03-09T08:03:28.000Z</time>
      </trkpt>
      <trkpt lat="46.12732" lon="-1.12817">
        <ele>3.7999999523163</ele>
        <time>2015-03-09T08:05:09.000Z</time>
      </trkpt>
      <trkpt lat="46.12732" lon="-1.12838">
        <ele>3.5999999046326</ele>
        <time>2015-03-09T08:05:20.000Z</time>
      </trkpt>
      <trkpt lat="46.12733" lon="-1.12853">
        <ele>3.4000000953674</ele>
        <time>2015-03-09T08:05:33.000Z</time>
      </trkpt>
      <trkpt lat="46.12732" lon="-1.12855">
        <ele>3.4000000953674</ele>
        <time>2015-03-09T08:12:03.000Z</time>
      </trkpt>
      <trkpt lat="46.12719" lon="-1.12866">
        <ele>3.4000000953674</ele>
        <time>2015-03-09T08:12:10.000Z</time>
      </trkpt>
      <trkpt lat="46.12716" lon="-1.12861">
        <ele>3.4000000953674</ele>
        <time>2015-03-09T08:12:18.000Z</time>
      </trkpt>
      <trkpt lat="46.12716" lon="-1.12865">
        <ele>3.4000000953674</ele>
        <time>2015-03-09T08:12:58.000Z</time>
      </trkpt>
      <trkpt lat="46.12717" lon="-1.12866">
        <ele>3.4000000953674</ele>
        <time>2015-03-09T08:12:59.000Z</time>
      </trkpt>
      <trkpt lat="46.12725" lon="-1.12865">
        <ele>3.4000000953674</ele>
        <time>2015-03-09T08:13:04.000Z</time>
      </trkpt>
      <trkpt lat="46.12726" lon="-1.12863">
        <ele>3.4000000953674</ele>
        <time>2015-03-09T08:13:05.000Z</time>
      </trkpt>
      <trkpt lat="46.12732" lon="-1.12853">
        <ele>3.4000000953674</ele>
        <time>2015-03-09T08:13:14.000Z</time>
      </trkpt>
      <trkpt lat="46.12731" lon="-1.12847">
        <ele>3.5999999046326</ele>
        <time>2015-03-09T08:13:21.000Z</time>
      </trkpt>
      <trkpt lat="46.1272" lon="-1.12832">
        <ele>3.7999999523163</ele>
        <time>2015-03-09T08:13:47.000Z</time>
      </trkpt>
      <trkpt lat="46.12707" lon="-1.12811">
        <ele>4</ele>
        <time>2015-03-09T08:14:02.000Z</time>
      </trkpt>
      <trkpt lat="46.12696" lon="-1.1279">
        <ele>4</ele>
        <time>2015-03-09T08:14:16.000Z</time>
      </trkpt>
      <trkpt lat="46.12681" lon="-1.12774">
        <ele>4</ele>
        <time>2015-03-09T08:14:29.000Z</time>
      </trkpt>
      <trkpt lat="46.12666" lon="-1.12759">
        <ele>3.5999999046326</ele>
        <time>2015-03-09T08:14:42.000Z</time>
      </trkpt>
      <trkpt lat="46.12649" lon="-1.12747">
        <ele>3.4000000953674</ele>
        <time>2015-03-09T08:14:55.000Z</time>
      </trkpt>
      <trkpt lat="46.12632" lon="-1.12736">
        <ele>3</ele>
        <time>2015-03-09T08:15:09.000Z</time>
      </trkpt>
      <trkpt lat="46.12616" lon="-1.12723">
        <ele>2.5999999046326</ele>
        <time>2015-03-09T08:15:23.000Z</time>
      </trkpt>
      <trkpt lat="46.12601" lon="-1.12708">
        <ele>2</ele>
        <time>2015-03-09T08:15:36.000Z</time>
      </trkpt>
      <trkpt lat="46.12584" lon="-1.12697">
        <ele>1.7999999523163</ele>
        <time>2015-03-09T08:15:51.000Z</time>
      </trkpt>
      <trkpt lat="46.12583" lon="-1.12696">
        <ele>1.7999999523163</ele>
        <time>2015-03-09T08:15:52.000Z</time>
      </trkpt>
      <trkpt lat="46.12575" lon="-1.12675">
        <ele>2.2000000476837</ele>
        <time>2015-03-09T08:16:09.000Z</time>
      </trkpt>
      <trkpt lat="46.12558" lon="-1.12662">
        <ele>3</ele>
        <time>2015-03-09T08:16:23.000Z</time>
      </trkpt>
      <trkpt lat="46.12541" lon="-1.1265">
        <ele>3.2000000476837</ele>
        <time>2015-03-09T08:16:37.000Z</time>
      </trkpt>
      <trkpt lat="46.12525" lon="-1.12639">
        <ele>3.4000000953674</ele>
        <time>2015-03-09T08:16:50.000Z</time>
      </trkpt>
      <trkpt lat="46.12508" lon="-1.12628">
        <ele>3.4000000953674</ele>
        <time>2015-03-09T08:17:04.000Z</time>
      </trkpt>
      <trkpt lat="46.12492" lon="-1.12617">
        <ele>3.5999999046326</ele>
        <time>2015-03-09T08:17:16.000Z</time>
      </trkpt>
      <trkpt lat="46.12475" lon="-1.12606">
        <ele>4</ele>
        <time>2015-03-09T08:17:29.000Z</time>
      </trkpt>
      <trkpt lat="46.12458" lon="-1.12597">
        <ele>4</ele>
        <time>2015-03-09T08:17:41.000Z</time>
      </trkpt>
      <trkpt lat="46.12442" lon="-1.12584">
        <ele>4</ele>
        <time>2015-03-09T08:17:55.000Z</time>
      </trkpt>
      <trkpt lat="46.12425" lon="-1.12574">
        <ele>4</ele>
        <time>2015-03-09T08:18:08.000Z</time>
      </trkpt>
      <trkpt lat="46.12408" lon="-1.12563">
        <ele>4</ele>
        <time>2015-03-09T08:18:20.000Z</time>
      </trkpt>
      <trkpt lat="46.12391" lon="-1.12552">
        <ele>3.7999999523163</ele>
        <time>2015-03-09T08:18:34.000Z</time>
      </trkpt>
      <trkpt lat="46.12374" lon="-1.12542">
        <ele>3.4000000953674</ele>
        <time>2015-03-09T08:18:47.000Z</time>
      </trkpt>
      <trkpt lat="46.12355" lon="-1.12536">
        <ele>3</ele>
        <time>2015-03-09T08:18:58.000Z</time>
      </trkpt>
      <trkpt lat="46.12338" lon="-1.12524">
        <ele>2.5999999046326</ele>
        <time>2015-03-09T08:19:09.000Z</time>
      </trkpt>
      <trkpt lat="46.12321" lon="-1.12514">
        <ele>2.4000000953674</ele>
        <time>2015-03-09T08:19:20.000Z</time>
      </trkpt>
      <trkpt lat="46.12304" lon="-1.12503">
        <ele>2.4000000953674</ele>
        <time>2015-03-09T08:19:32.000Z</time>
      </trkpt>
      <trkpt lat="46.12303" lon="-1.12502">
        <ele>2.4000000953674</ele>
        <time>2015-03-09T08:19:33.000Z</time>
      </trkpt>
      <trkpt lat="46.12286" lon="-1.12492">
        <ele>2.4000000953674</ele>
        <time>2015-03-09T08:19:46.000Z</time>
      </trkpt>
      <trkpt lat="46.12269" lon="-1.12484">
        <ele>3</ele>
        <time>2015-03-09T08:20:00.000Z</time>
      </trkpt>
      <trkpt lat="46.12251" lon="-1.12474">
        <ele>3.4000000953674</ele>
        <time>2015-03-09T08:20:12.000Z</time>
      </trkpt>
      <trkpt lat="46.12238" lon="-1.12463">
        <ele>3.5999999046326</ele>
        <time>2015-03-09T08:20:23.000Z</time>
      </trkpt>
      <trkpt lat="46.12219" lon="-1.12461">
        <ele>3.7999999523163</ele>
        <time>2015-03-09T08:20:35.000Z</time>
      </trkpt>
      <trkpt lat="46.12201" lon="-1.1245">
        <ele>4</ele>
        <time>2015-03-09T08:20:49.000Z</time>
      </trkpt>
      <trkpt lat="46.12184" lon="-1.12439">
        <ele>4.1999998092651</ele>
        <time>2015-03-09T08:21:03.000Z</time>
      </trkpt>
      <trkpt lat="46.12167" lon="-1.12429">
        <ele>4.5999999046326</ele>
        <time>2015-03-09T08:21:16.000Z</time>
      </trkpt>
      <trkpt lat="46.1215" lon="-1.12417">
        <ele>5</ele>
        <time>2015-03-09T08:21:30.000Z</time>
      </trkpt>
      <trkpt lat="46.12143" lon="-1.12414">
        <ele>5.1999998092651</ele>
        <time>2015-03-09T08:21:35.000Z</time>
      </trkpt>
      <trkpt lat="46.12125" lon="-1.12404">
        <ele>5</ele>
        <time>2015-03-09T08:21:48.000Z</time>
      </trkpt>
      <trkpt lat="46.12107" lon="-1.12396">
        <ele>5</ele>
        <time>2015-03-09T08:22:01.000Z</time>
      </trkpt>
      <trkpt lat="46.12106" lon="-1.12395">
        <ele>5</ele>
        <time>2015-03-09T08:22:02.000Z</time>
      </trkpt>
      <trkpt lat="46.12087" lon="-1.1239">
        <ele>4.8000001907349</ele>
        <time>2015-03-09T08:22:15.000Z</time>
      </trkpt>
      <trkpt lat="46.12069" lon="-1.12382">
        <ele>4.5999999046326</ele>
        <time>2015-03-09T08:22:29.000Z</time>
      </trkpt>
      <trkpt lat="46.12051" lon="-1.12376">
        <ele>4.1999998092651</ele>
        <time>2015-03-09T08:22:42.000Z</time>
      </trkpt>
      <trkpt lat="46.12032" lon="-1.12371">
        <ele>4</ele>
        <time>2015-03-09T08:22:55.000Z</time>
      </trkpt>
      <trkpt lat="46.12014" lon="-1.12365">
        <ele>3.5999999046326</ele>
        <time>2015-03-09T08:23:09.000Z</time>
      </trkpt>
      <trkpt lat="46.11996" lon="-1.12357">
        <ele>3.4000000953674</ele>
        <time>2015-03-09T08:23:22.000Z</time>
      </trkpt>
      <trkpt lat="46.11978" lon="-1.12348">
        <ele>3.4000000953674</ele>
        <time>2015-03-09T08:23:35.000Z</time>
      </trkpt>
      <trkpt lat="46.11959" lon="-1.1234">
        <ele>3.5999999046326</ele>
        <time>2015-03-09T08:23:48.000Z</time>
      </trkpt>
      <trkpt lat="46.1194" lon="-1.12335">
        <ele>3.5999999046326</ele>
        <time>2015-03-09T08:24:00.000Z</time>
      </trkpt>
      <trkpt lat="46.11922" lon="-1.12328">
        <ele>3.5999999046326</ele>
        <time>2015-03-09T08:24:12.000Z</time>
      </trkpt>
      <trkpt lat="46.11904" lon="-1.12321">
        <ele>3.4000000953674</ele>
        <time>2015-03-09T08:24:25.000Z</time>
      </trkpt>
      <trkpt lat="46.11886" lon="-1.12314">
        <ele>3.2000000476837</ele>
        <time>2015-03-09T08:24:40.000Z</time>
      </trkpt>
      <trkpt lat="46.11868" lon="-1.12309">
        <ele>3.2000000476837</ele>
        <time>2015-03-09T08:24:53.000Z</time>
      </trkpt>
      <trkpt lat="46.11857" lon="-1.12307">
        <ele>3.4000000953674</ele>
        <time>2015-03-09T08:25:02.000Z</time>
      </trkpt>
      <trkpt lat="46.11849" lon="-1.1233">
        <ele>4.1999998092651</ele>
        <time>2015-03-09T08:25:16.000Z</time>
      </trkpt>
      <trkpt lat="46.11839" lon="-1.1235">
        <ele>5</ele>
        <time>2015-03-09T08:25:31.000Z</time>
      </trkpt>
      <trkpt lat="46.11819" lon="-1.12346">
        <ele>5.1999998092651</ele>
        <time>2015-03-09T08:25:44.000Z</time>
      </trkpt>
      <trkpt lat="46.11801" lon="-1.12341">
        <ele>4.8000001907349</ele>
        <time>2015-03-09T08:25:58.000Z</time>
      </trkpt>
      <trkpt lat="46.11783" lon="-1.12336">
        <ele>4.4000000953674</ele>
        <time>2015-03-09T08:26:10.000Z</time>
      </trkpt>
      <trkpt lat="46.11764" lon="-1.12332">
        <ele>4.1999998092651</ele>
        <time>2015-03-09T08:26:22.000Z</time>
      </trkpt>
      <trkpt lat="46.11751" lon="-1.12331">
        <ele>4.1999998092651</ele>
        <time>2015-03-09T08:26:32.000Z</time>
      </trkpt>
      <trkpt lat="46.11747" lon="-1.12329">
        <ele>4.1999998092651</ele>
        <time>2015-03-09T08:26:36.000Z</time>
      </trkpt>
      <trkpt lat="46.11728" lon="-1.12328">
        <ele>4.1999998092651</ele>
        <time>2015-03-09T08:26:49.000Z</time>
      </trkpt>
      <trkpt lat="46.11709" lon="-1.12322">
        <ele>3.7999999523163</ele>
        <time>2015-03-09T08:27:02.000Z</time>
      </trkpt>
      <trkpt lat="46.1169" lon="-1.12319">
        <ele>3.2000000476837</ele>
        <time>2015-03-09T08:27:14.000Z</time>
      </trkpt>
      <trkpt lat="46.11671" lon="-1.12319">
        <ele>2.7999999523163</ele>
        <time>2015-03-09T08:27:28.000Z</time>
      </trkpt>
      <trkpt lat="46.11653" lon="-1.12316">
        <ele>2.2000000476837</ele>
        <time>2015-03-09T08:27:41.000Z</time>
      </trkpt>
      <trkpt lat="46.11633" lon="-1.12319">
        <ele>2</ele>
        <time>2015-03-09T08:27:53.000Z</time>
      </trkpt>
      <trkpt lat="46.11616" lon="-1.12326">
        <ele>2.2000000476837</ele>
        <time>2015-03-09T08:28:05.000Z</time>
      </trkpt>
      <trkpt lat="46.11602" lon="-1.1234">
        <ele>2.2000000476837</ele>
        <time>2015-03-09T08:28:20.000Z</time>
      </trkpt>
      <trkpt lat="46.11583" lon="-1.12339">
        <ele>2.4000000953674</ele>
        <time>2015-03-09T08:28:33.000Z</time>
      </trkpt>
      <trkpt lat="46.11564" lon="-1.12338">
        <ele>2.5999999046326</ele>
        <time>2015-03-09T08:28:45.000Z</time>
      </trkpt>
      <trkpt lat="46.11546" lon="-1.1234">
        <ele>2.5999999046326</ele>
        <time>2015-03-09T08:28:58.000Z</time>
      </trkpt>
      <trkpt lat="46.11528" lon="-1.12342">
        <ele>2.5999999046326</ele>
        <time>2015-03-09T08:29:12.000Z</time>
      </trkpt>
      <trkpt lat="46.1151" lon="-1.12344">
        <ele>2.4000000953674</ele>
        <time>2015-03-09T08:29:25.000Z</time>
      </trkpt>
      <trkpt lat="46.11491" lon="-1.12338">
        <ele>2.2000000476837</ele>
        <time>2015-03-09T08:29:39.000Z</time>
      </trkpt>
      <trkpt lat="46.11474" lon="-1.12345">
        <ele>2</ele>
        <time>2015-03-09T08:29:53.000Z</time>
      </trkpt>
      <trkpt lat="46.11456" lon="-1.12351">
        <ele>2</ele>
        <time>2015-03-09T08:30:07.000Z</time>
      </trkpt>
      <trkpt lat="46.11437" lon="-1.12356">
        <ele>2</ele>
        <time>2015-03-09T08:30:20.000Z</time>
      </trkpt>
      <trkpt lat="46.11419" lon="-1.12361">
        <ele>2</ele>
        <time>2015-03-09T08:30:33.000Z</time>
      </trkpt>
      <trkpt lat="46.11401" lon="-1.12368">
        <ele>2.2000000476837</ele>
        <time>2015-03-09T08:30:46.000Z</time>
      </trkpt>
      <trkpt lat="46.11383" lon="-1.12374">
        <ele>2.2000000476837</ele>
        <time>2015-03-09T08:30:59.000Z</time>
      </trkpt>
      <trkpt lat="46.11365" lon="-1.12379">
        <ele>2.2000000476837</ele>
        <time>2015-03-09T08:31:11.000Z</time>
      </trkpt>
      <trkpt lat="46.11347" lon="-1.12385">
        <ele>2.2000000476837</ele>
        <time>2015-03-09T08:31:24.000Z</time>
      </trkpt>
      <trkpt lat="46.11328" lon="-1.12389">
        <ele>2</ele>
        <time>2015-03-09T08:31:37.000Z</time>
      </trkpt>
      <trkpt lat="46.11311" lon="-1.12394">
        <ele>2</ele>
        <time>2015-03-09T08:31:49.000Z</time>
      </trkpt>
      <trkpt lat="46.11308" lon="-1.12395">
        <ele>2</ele>
        <time>2015-03-09T08:31:51.000Z</time>
      </trkpt>
      <trkpt lat="46.113" lon="-1.12396">
        <ele>2.2000000476837</ele>
        <time>2015-03-09T08:31:57.000Z</time>
      </trkpt>
      <trkpt lat="46.11299" lon="-1.12397">
        <ele>2.2000000476837</ele>
        <time>2015-03-09T08:31:58.000Z</time>
      </trkpt>
      <trkpt lat="46.11296" lon="-1.12397">
        <ele>2.2000000476837</ele>
        <time>2015-03-09T08:32:01.000Z</time>
      </trkpt>
      <trkpt lat="46.1129" lon="-1.12398">
        <ele>2.4000000953674</ele>
        <time>2015-03-09T08:32:06.000Z</time>
      </trkpt>
      <trkpt lat="46.11271" lon="-1.12405">
        <ele>2.7999999523163</ele>
        <time>2015-03-09T08:32:18.000Z</time>
      </trkpt>
      <trkpt lat="46.11253" lon="-1.12408">
        <ele>3.2000000476837</ele>
        <time>2015-03-09T08:32:30.000Z</time>
      </trkpt>
      <trkpt lat="46.11234" lon="-1.12412">
        <ele>3.5999999046326</ele>
        <time>2015-03-09T08:32:43.000Z</time>
      </trkpt>
      <trkpt lat="46.11215" lon="-1.12414">
        <ele>3.4000000953674</ele>
        <time>2015-03-09T08:32:55.000Z</time>
      </trkpt>
      <trkpt lat="46.11198" lon="-1.12425">
        <ele>2.7999999523163</ele>
        <time>2015-03-09T08:33:08.000Z</time>
      </trkpt>
      <trkpt lat="46.11181" lon="-1.12439">
        <ele>2.4000000953674</ele>
        <time>2015-03-09T08:33:22.000Z</time>
      </trkpt>
      <trkpt lat="46.11166" lon="-1.12456">
        <ele>1.7999999523163</ele>
        <time>2015-03-09T08:33:38.000Z</time>
      </trkpt>
      <trkpt lat="46.1115" lon="-1.12469">
        <ele>1.2000000476837</ele>
        <time>2015-03-09T08:33:51.000Z</time>
      </trkpt>
      <trkpt lat="46.11134" lon="-1.12482">
        <ele>1</ele>
        <time>2015-03-09T08:34:03.000Z</time>
      </trkpt>
      <trkpt lat="46.11119" lon="-1.12497">
        <ele>1</ele>
        <time>2015-03-09T08:34:15.000Z</time>
      </trkpt>
      <trkpt lat="46.11104" lon="-1.12512">
        <ele>1</ele>
        <time>2015-03-09T08:34:28.000Z</time>
      </trkpt>
      <trkpt lat="46.11088" lon="-1.12529">
        <ele>1</ele>
        <time>2015-03-09T08:34:40.000Z</time>
      </trkpt>
      <trkpt lat="46.1108" lon="-1.12552">
        <ele>1</ele>
        <time>2015-03-09T08:34:52.000Z</time>
      </trkpt>
      <trkpt lat="46.11076" lon="-1.12579">
        <ele>0.40000000596046</ele>
        <time>2015-03-09T08:35:05.000Z</time>
      </trkpt>
      <trkpt lat="46.11079" lon="-1.12606">
        <ele>-0.40000000596046</ele>
        <time>2015-03-09T08:35:19.000Z</time>
      </trkpt>
      <trkpt lat="46.11082" lon="-1.12632">
        <ele>-0.80000001192093</ele>
        <time>2015-03-09T08:35:32.000Z</time>
      </trkpt>
      <trkpt lat="46.11078" lon="-1.12658">
        <ele>0.20000000298023</ele>
        <time>2015-03-09T08:35:44.000Z</time>
      </trkpt>
      <trkpt lat="46.11074" lon="-1.12683">
        <ele>1.7999999523163</ele>
        <time>2015-03-09T08:35:56.000Z</time>
      </trkpt>
      <trkpt lat="46.11069" lon="-1.12709">
        <ele>3.2000000476837</ele>
        <time>2015-03-09T08:36:09.000Z</time>
      </trkpt>
      <trkpt lat="46.11064" lon="-1.12735">
        <ele>4</ele>
        <time>2015-03-09T08:36:21.000Z</time>
      </trkpt>
      <trkpt lat="46.11059" lon="-1.1276">
        <ele>3.5999999046326</ele>
        <time>2015-03-09T08:36:33.000Z</time>
      </trkpt>
      <trkpt lat="46.11053" lon="-1.12785">
        <ele>3.4000000953674</ele>
        <time>2015-03-09T08:36:45.000Z</time>
      </trkpt>
      <trkpt lat="46.11043" lon="-1.12808">
        <ele>3</ele>
        <time>2015-03-09T08:36:58.000Z</time>
      </trkpt>
      <trkpt lat="46.11034" lon="-1.12831">
        <ele>0.80000001192093</ele>
        <time>2015-03-09T08:37:11.000Z</time>
      </trkpt>
      <trkpt lat="46.11025" lon="-1.12854">
        <ele>0.60000002384186</ele>
        <time>2015-03-09T08:37:23.000Z</time>
      </trkpt>
      <trkpt lat="46.11015" lon="-1.12878">
        <ele>0.40000000596046</ele>
        <time>2015-03-09T08:37:36.000Z</time>
      </trkpt>
      <trkpt lat="46.11007" lon="-1.12903">
        <ele>0.20000000298023</ele>
        <time>2015-03-09T08:37:49.000Z</time>
      </trkpt>
      <trkpt lat="46.10998" lon="-1.12927">
        <ele>0.40000000596046</ele>
        <time>2015-03-09T08:38:02.000Z</time>
      </trkpt>
      <trkpt lat="46.10988" lon="-1.1295">
        <ele>0.60000002384186</ele>
        <time>2015-03-09T08:38:14.000Z</time>
      </trkpt>
      <trkpt lat="46.10978" lon="-1.12972">
        <ele>1</ele>
        <time>2015-03-09T08:38:26.000Z</time>
      </trkpt>
      <trkpt lat="46.10967" lon="-1.12993">
        <ele>1</ele>
        <time>2015-03-09T08:38:38.000Z</time>
      </trkpt>
      <trkpt lat="46.10954" lon="-1.13012">
        <ele>1.2000000476837</ele>
        <time>2015-03-09T08:38:51.000Z</time>
      </trkpt>
      <trkpt lat="46.10939" lon="-1.1303">
        <ele>1.2000000476837</ele>
        <time>2015-03-09T08:39:04.000Z</time>
      </trkpt>
      <trkpt lat="46.10925" lon="-1.13047">
        <ele>1.3999999761581</ele>
        <time>2015-03-09T08:39:16.000Z</time>
      </trkpt>
      <trkpt lat="46.10914" lon="-1.13068">
        <ele>1.3999999761581</ele>
        <time>2015-03-09T08:39:28.000Z</time>
      </trkpt>
      <trkpt lat="46.10906" lon="-1.13092">
        <ele>1.6000000238419</ele>
        <time>2015-03-09T08:39:41.000Z</time>
      </trkpt>
      <trkpt lat="46.10899" lon="-1.13118">
        <ele>1.7999999523163</ele>
        <time>2015-03-09T08:39:54.000Z</time>
      </trkpt>
      <trkpt lat="46.10893" lon="-1.13144">
        <ele>2</ele>
        <time>2015-03-09T08:40:07.000Z</time>
      </trkpt>
      <trkpt lat="46.10892" lon="-1.13171">
        <ele>2</ele>
        <time>2015-03-09T08:40:20.000Z</time>
      </trkpt>
      <trkpt lat="46.10891" lon="-1.13198">
        <ele>2</ele>
        <time>2015-03-09T08:40:33.000Z</time>
      </trkpt>
      <trkpt lat="46.10894" lon="-1.13225">
        <ele>2</ele>
        <time>2015-03-09T08:40:49.000Z</time>
      </trkpt>
      <trkpt lat="46.109" lon="-1.13249">
        <ele>1.6000000238419</ele>
        <time>2015-03-09T08:41:03.000Z</time>
      </trkpt>
      <trkpt lat="46.10913" lon="-1.13268">
        <ele>1.2000000476837</ele>
        <time>2015-03-09T08:41:16.000Z</time>
      </trkpt>
      <trkpt lat="46.10925" lon="-1.13288">
        <ele>1</ele>
        <time>2015-03-09T08:41:28.000Z</time>
      </trkpt>
      <trkpt lat="46.10936" lon="-1.1331">
        <ele>1</ele>
        <time>2015-03-09T08:41:41.000Z</time>
      </trkpt>
      <trkpt lat="46.10942" lon="-1.13335">
        <ele>2.2000000476837</ele>
        <time>2015-03-09T08:41:53.000Z</time>
      </trkpt>
      <trkpt lat="46.10947" lon="-1.13361">
        <ele>2.4000000953674</ele>
        <time>2015-03-09T08:42:06.000Z</time>
      </trkpt>
      <trkpt lat="46.10952" lon="-1.13387">
        <ele>2.2000000476837</ele>
        <time>2015-03-09T08:42:19.000Z</time>
      </trkpt>
      <trkpt lat="46.10957" lon="-1.13413">
        <ele>3</ele>
        <time>2015-03-09T08:42:32.000Z</time>
      </trkpt>
      <trkpt lat="46.10959" lon="-1.13439">
        <ele>3</ele>
        <time>2015-03-09T08:42:43.000Z</time>
      </trkpt>
      <trkpt lat="46.10961" lon="-1.13466">
        <ele>3</ele>
        <time>2015-03-09T08:42:55.000Z</time>
      </trkpt>
      <trkpt lat="46.10963" lon="-1.13493">
        <ele>3</ele>
        <time>2015-03-09T08:43:08.000Z</time>
      </trkpt>
      <trkpt lat="46.10962" lon="-1.1352">
        <ele>3</ele>
        <time>2015-03-09T08:43:21.000Z</time>
      </trkpt>
      <trkpt lat="46.10963" lon="-1.13546">
        <ele>3</ele>
        <time>2015-03-09T08:43:33.000Z</time>
      </trkpt>
      <trkpt lat="46.10961" lon="-1.13572">
        <ele>2</ele>
        <time>2015-03-09T08:43:45.000Z</time>
      </trkpt>
      <trkpt lat="46.10958" lon="-1.13599">
        <ele>2</ele>
        <time>2015-03-09T08:43:57.000Z</time>
      </trkpt>
      <trkpt lat="46.10958" lon="-1.13626">
        <ele>2</ele>
        <time>2015-03-09T08:44:09.000Z</time>
      </trkpt>
      <trkpt lat="46.10957" lon="-1.13653">
        <ele>1.2000000476837</ele>
        <time>2015-03-09T08:44:21.000Z</time>
      </trkpt>
      <trkpt lat="46.10961" lon="-1.13679">
        <ele>1</ele>
        <time>2015-03-09T08:44:33.000Z</time>
      </trkpt>
      <trkpt lat="46.10966" lon="-1.13704">
        <ele>0.60000002384186</ele>
        <time>2015-03-09T08:44:46.000Z</time>
      </trkpt>
      <trkpt lat="46.10972" lon="-1.13729">
        <ele>0.20000000298023</ele>
        <time>2015-03-09T08:44:58.000Z</time>
      </trkpt>
      <trkpt lat="46.10976" lon="-1.13754">
        <ele>0.40000000596046</ele>
        <time>2015-03-09T08:45:10.000Z</time>
      </trkpt>
      <trkpt lat="46.10979" lon="-1.13771">
        <ele>0.60000002384186</ele>
        <time>2015-03-09T08:45:19.000Z</time>
      </trkpt>
      <trkpt lat="46.10971" lon="-1.13788">
        <ele>0.80000001192093</ele>
        <time>2015-03-09T08:45:34.000Z</time>
      </trkpt>
      <trkpt lat="46.10969" lon="-1.13794">
        <ele>1</ele>
        <time>2015-03-09T08:45:42.000Z</time>
      </trkpt>
      <trkpt lat="46.10955" lon="-1.13805">
        <ele>1.3999999761581</ele>
        <time>2015-03-09T08:53:04.000Z</time>
      </trkpt>
      <trkpt lat="46.10954" lon="-1.13805">
        <ele>1.3999999761581</ele>
        <time>2015-03-09T08:53:05.000Z</time>
      </trkpt>
      <trkpt lat="46.10936" lon="-1.13809">
        <ele>2</ele>
        <time>2015-03-09T08:53:18.000Z</time>
      </trkpt>
      <trkpt lat="46.10916" lon="-1.13811">
        <ele>2.4000000953674</ele>
        <time>2015-03-09T08:53:31.000Z</time>
      </trkpt>
      <trkpt lat="46.10903" lon="-1.13798">
        <ele>2.5999999046326</ele>
        <time>2015-03-09T08:53:44.000Z</time>
      </trkpt>
      <trkpt lat="46.10894" lon="-1.13795">
        <ele>2.7999999523163</ele>
        <time>2015-03-09T08:53:52.000Z</time>
      </trkpt>
      <trkpt lat="46.10876" lon="-1.13796">
        <ele>2.5999999046326</ele>
        <time>2015-03-09T08:54:07.000Z</time>
      </trkpt>
      <trkpt lat="46.10864" lon="-1.13798">
        <ele>2.4000000953674</ele>
        <time>2015-03-09T08:54:15.000Z</time>
      </trkpt>
      <trkpt lat="46.10857" lon="-1.13799">
        <ele>2.4000000953674</ele>
        <time>2015-03-09T08:54:19.000Z</time>
      </trkpt>
      <trkpt lat="46.10854" lon="-1.13799">
        <ele>2.4000000953674</ele>
        <time>2015-03-09T08:54:22.000Z</time>
      </trkpt>
      <trkpt lat="46.10846" lon="-1.13801">
        <ele>2.4000000953674</ele>
        <time>2015-03-09T08:54:28.000Z</time>
      </trkpt>
      <trkpt lat="46.10829" lon="-1.13806">
        <ele>2.2000000476837</ele>
        <time>2015-03-09T08:54:40.000Z</time>
      </trkpt>
      <trkpt lat="46.10811" lon="-1.13815">
        <ele>2</ele>
        <time>2015-03-09T08:54:53.000Z</time>
      </trkpt>
      <trkpt lat="46.1081" lon="-1.13817">
        <ele>2</ele>
        <time>2015-03-09T08:54:54.000Z</time>
      </trkpt>
      <trkpt lat="46.10793" lon="-1.13828">
        <ele>2.2000000476837</ele>
        <time>2015-03-09T08:55:09.000Z</time>
      </trkpt>
      <trkpt lat="46.10776" lon="-1.13838">
        <ele>2.4000000953674</ele>
        <time>2015-03-09T08:55:23.000Z</time>
      </trkpt>
      <trkpt lat="46.10758" lon="-1.13842">
        <ele>2.5999999046326</ele>
        <time>2015-03-09T08:55:36.000Z</time>
      </trkpt>
      <trkpt lat="46.10739" lon="-1.13846">
        <ele>2.7999999523163</ele>
        <time>2015-03-09T08:55:49.000Z</time>
      </trkpt>
      <trkpt lat="46.1072" lon="-1.13847">
        <ele>3</ele>
        <time>2015-03-09T08:56:03.000Z</time>
      </trkpt>
      <trkpt lat="46.10702" lon="-1.13847">
        <ele>3</ele>
        <time>2015-03-09T08:56:16.000Z</time>
      </trkpt>
      <trkpt lat="46.10684" lon="-1.13849">
        <ele>3</ele>
        <time>2015-03-09T08:56:29.000Z</time>
      </trkpt>
      <trkpt lat="46.10666" lon="-1.13847">
        <ele>3</ele>
        <time>2015-03-09T08:56:42.000Z</time>
      </trkpt>
      <trkpt lat="46.10664" lon="-1.13846">
        <ele>3</ele>
        <time>2015-03-09T08:56:44.000Z</time>
      </trkpt>
      <trkpt lat="46.10647" lon="-1.13857">
        <ele>3</ele>
        <time>2015-03-09T08:56:59.000Z</time>
      </trkpt>
      <trkpt lat="46.10632" lon="-1.13871">
        <ele>3</ele>
        <time>2015-03-09T08:57:11.000Z</time>
      </trkpt>
      <trkpt lat="46.10618" lon="-1.13888">
        <ele>3</ele>
        <time>2015-03-09T08:57:23.000Z</time>
      </trkpt>
      <trkpt lat="46.10604" lon="-1.13906">
        <ele>3.4000000953674</ele>
        <time>2015-03-09T08:57:36.000Z</time>
      </trkpt>
      <trkpt lat="46.10589" lon="-1.13923">
        <ele>4</ele>
        <time>2015-03-09T08:57:47.000Z</time>
      </trkpt>
      <trkpt lat="46.10571" lon="-1.1393">
        <ele>4.1999998092651</ele>
        <time>2015-03-09T08:58:00.000Z</time>
      </trkpt>
      <trkpt lat="46.10552" lon="-1.13928">
        <ele>4.1999998092651</ele>
        <time>2015-03-09T08:58:12.000Z</time>
      </trkpt>
      <trkpt lat="46.10534" lon="-1.13935">
        <ele>4.1999998092651</ele>
        <time>2015-03-09T08:58:23.000Z</time>
      </trkpt>
      <trkpt lat="46.10515" lon="-1.13937">
        <ele>4</ele>
        <time>2015-03-09T08:58:35.000Z</time>
      </trkpt>
      <trkpt lat="46.10498" lon="-1.13943">
        <ele>4</ele>
        <time>2015-03-09T08:58:47.000Z</time>
      </trkpt>
      <trkpt lat="46.10483" lon="-1.13958">
        <ele>4.4000000953674</ele>
        <time>2015-03-09T08:58:59.000Z</time>
      </trkpt>
      <trkpt lat="46.10468" lon="-1.13973">
        <ele>4.4000000953674</ele>
        <time>2015-03-09T08:59:12.000Z</time>
      </trkpt>
      <trkpt lat="46.10457" lon="-1.1398">
        <ele>4</ele>
        <time>2015-03-09T08:59:22.000Z</time>
      </trkpt>
      <trkpt lat="46.10449" lon="-1.1399">
        <ele>3.5999999046326</ele>
        <time>2015-03-09T08:59:36.000Z</time>
      </trkpt>
      <trkpt lat="46.10444" lon="-1.13993">
        <ele>3.4000000953674</ele>
        <time>2015-03-09T08:59:46.000Z</time>
      </trkpt>
      <trkpt lat="46.1046" lon="-1.13983">
        <ele>4.1999998092651</ele>
        <time>2015-03-09T09:02:41.000Z</time>
      </trkpt>
      <trkpt lat="46.10461" lon="-1.13982">
        <ele>4.1999998092651</ele>
        <time>2015-03-09T09:02:42.000Z</time>
      </trkpt>
      <trkpt lat="46.10478" lon="-1.1397">
        <ele>4.8000001907349</ele>
        <time>2015-03-09T09:02:58.000Z</time>
      </trkpt>
      <trkpt lat="46.10492" lon="-1.13952">
        <ele>4.1999998092651</ele>
        <time>2015-03-09T09:03:11.000Z</time>
      </trkpt>
      <trkpt lat="46.10508" lon="-1.13941">
        <ele>4</ele>
        <time>2015-03-09T09:03:24.000Z</time>
      </trkpt>
      <trkpt lat="46.10526" lon="-1.13938">
        <ele>4.1999998092651</ele>
        <time>2015-03-09T09:03:37.000Z</time>
      </trkpt>
      <trkpt lat="46.10544" lon="-1.13934">
        <ele>4.1999998092651</ele>
        <time>2015-03-09T09:03:52.000Z</time>
      </trkpt>
      <trkpt lat="46.10561" lon="-1.13926">
        <ele>4.1999998092651</ele>
        <time>2015-03-09T09:04:05.000Z</time>
      </trkpt>
      <trkpt lat="46.10579" lon="-1.13932">
        <ele>4.4000000953674</ele>
        <time>2015-03-09T09:04:18.000Z</time>
      </trkpt>
      <trkpt lat="46.10596" lon="-1.1392">
        <ele>4</ele>
        <time>2015-03-09T09:04:33.000Z</time>
      </trkpt>
      <trkpt lat="46.1061" lon="-1.13901">
        <ele>3.2000000476837</ele>
        <time>2015-03-09T09:04:48.000Z</time>
      </trkpt>
      <trkpt lat="46.10624" lon="-1.13885">
        <ele>3</ele>
        <time>2015-03-09T09:05:00.000Z</time>
      </trkpt>
      <trkpt lat="46.1063" lon="-1.13861">
        <ele>3</ele>
        <time>2015-03-09T09:05:15.000Z</time>
      </trkpt>
      <trkpt lat="46.1063" lon="-1.13833">
        <ele>3</ele>
        <time>2015-03-09T09:05:30.000Z</time>
      </trkpt>
      <trkpt lat="46.10631" lon="-1.13807">
        <ele>2.7999999523163</ele>
        <time>2015-03-09T09:05:43.000Z</time>
      </trkpt>
      <trkpt lat="46.10632" lon="-1.13778">
        <ele>3.2000000476837</ele>
        <time>2015-03-09T09:05:55.000Z</time>
      </trkpt>
      <trkpt lat="46.10633" lon="-1.1375">
        <ele>3.4000000953674</ele>
        <time>2015-03-09T09:06:07.000Z</time>
      </trkpt>
      <trkpt lat="46.10632" lon="-1.13723">
        <ele>3.7999999523163</ele>
        <time>2015-03-09T09:06:19.000Z</time>
      </trkpt>
      <trkpt lat="46.10631" lon="-1.13695">
        <ele>3.4000000953674</ele>
        <time>2015-03-09T09:06:31.000Z</time>
      </trkpt>
      <trkpt lat="46.10629" lon="-1.13682">
        <ele>3.2000000476837</ele>
        <time>2015-03-09T09:06:37.000Z</time>
      </trkpt>
      <trkpt lat="46.10625" lon="-1.13667">
        <ele>3</ele>
        <time>2015-03-09T09:06:44.000Z</time>
      </trkpt>
      <trkpt lat="46.10625" lon="-1.13664">
        <ele>3</ele>
        <time>2015-03-09T09:06:46.000Z</time>
      </trkpt>
      <trkpt lat="46.1062" lon="-1.13639">
        <ele>2.5999999046326</ele>
        <time>2015-03-09T09:06:57.000Z</time>
      </trkpt>
      <trkpt lat="46.10614" lon="-1.13613">
        <ele>2.2000000476837</ele>
        <time>2015-03-09T09:07:10.000Z</time>
      </trkpt>
      <trkpt lat="46.10607" lon="-1.13588">
        <ele>2</ele>
        <time>2015-03-09T09:07:22.000Z</time>
      </trkpt>
      <trkpt lat="46.10599" lon="-1.13565">
        <ele>2</ele>
        <time>2015-03-09T09:07:33.000Z</time>
      </trkpt>
      <trkpt lat="46.10588" lon="-1.13543">
        <ele>2</ele>
        <time>2015-03-09T09:07:42.000Z</time>
      </trkpt>
      <trkpt lat="46.10578" lon="-1.13522">
        <ele>2</ele>
        <time>2015-03-09T09:07:53.000Z</time>
      </trkpt>
      <trkpt lat="46.10567" lon="-1.13499">
        <ele>2</ele>
        <time>2015-03-09T09:08:05.000Z</time>
      </trkpt>
      <trkpt lat="46.10556" lon="-1.13477">
        <ele>2</ele>
        <time>2015-03-09T09:08:19.000Z</time>
      </trkpt>
      <trkpt lat="46.10545" lon="-1.13456">
        <ele>1.7999999523163</ele>
        <time>2015-03-09T09:08:34.000Z</time>
      </trkpt>
      <trkpt lat="46.10538" lon="-1.1344">
        <ele>1.7999999523163</ele>
        <time>2015-03-09T09:08:54.000Z</time>
      </trkpt>
      <trkpt lat="46.10518" lon="-1.13373">
        <ele>1.7999999523163</ele>
        <time>2015-03-09T09:12:19.000Z</time>
      </trkpt>
      <trkpt lat="46.10519" lon="-1.13372">
        <ele>1.7999999523163</ele>
        <time>2015-03-09T09:12:20.000Z</time>
      </trkpt>
      <trkpt lat="46.10526" lon="-1.13369">
        <ele>1.7999999523163</ele>
        <time>2015-03-09T09:12:25.000Z</time>
      </trkpt>
      <trkpt lat="46.10543" lon="-1.1336">
        <ele>2.2000000476837</ele>
        <time>2015-03-09T09:12:39.000Z</time>
      </trkpt>
      <trkpt lat="46.10559" lon="-1.13345">
        <ele>2.5999999046326</ele>
        <time>2015-03-09T09:12:53.000Z</time>
      </trkpt>
      <trkpt lat="46.10572" lon="-1.13324">
        <ele>2.7999999523163</ele>
        <time>2015-03-09T09:13:07.000Z</time>
      </trkpt>
      <trkpt lat="46.10575" lon="-1.13298">
        <ele>2.7999999523163</ele>
        <time>2015-03-09T09:13:21.000Z</time>
      </trkpt>
      <trkpt lat="46.10575" lon="-1.13271">
        <ele>2.7999999523163</ele>
        <time>2015-03-09T09:13:36.000Z</time>
      </trkpt>
      <trkpt lat="46.10575" lon="-1.13244">
        <ele>2.7999999523163</ele>
        <time>2015-03-09T09:13:50.000Z</time>
      </trkpt>
      <trkpt lat="46.10581" lon="-1.13219">
        <ele>2.7999999523163</ele>
        <time>2015-03-09T09:14:04.000Z</time>
      </trkpt>
      <trkpt lat="46.10586" lon="-1.13194">
        <ele>2.5999999046326</ele>
        <time>2015-03-09T09:14:17.000Z</time>
      </trkpt>
      <trkpt lat="46.10578" lon="-1.13169">
        <ele>2.7999999523163</ele>
        <time>2015-03-09T09:14:30.000Z</time>
      </trkpt>
      <trkpt lat="46.1057" lon="-1.13146">
        <ele>2.7999999523163</ele>
        <time>2015-03-09T09:14:42.000Z</time>
      </trkpt>
      <trkpt lat="46.10565" lon="-1.13134">
        <ele>2.7999999523163</ele>
        <time>2015-03-09T09:14:48.000Z</time>
      </trkpt>
      <trkpt lat="46.10562" lon="-1.13126">
        <ele>2.7999999523163</ele>
        <time>2015-03-09T09:14:53.000Z</time>
      </trkpt>
      <trkpt lat="46.10553" lon="-1.13103">
        <ele>2.5999999046326</ele>
        <time>2015-03-09T09:15:05.000Z</time>
      </trkpt>
      <trkpt lat="46.10545" lon="-1.13078">
        <ele>2.2000000476837</ele>
        <time>2015-03-09T09:15:18.000Z</time>
      </trkpt>
      <trkpt lat="46.10541" lon="-1.13051">
        <ele>2.5999999046326</ele>
        <time>2015-03-09T09:15:31.000Z</time>
      </trkpt>
      <trkpt lat="46.10538" lon="-1.13024">
        <ele>3</ele>
        <time>2015-03-09T09:15:43.000Z</time>
      </trkpt>
      <trkpt lat="46.10536" lon="-1.12997">
        <ele>3.4000000953674</ele>
        <time>2015-03-09T09:15:55.000Z</time>
      </trkpt>
      <trkpt lat="46.10535" lon="-1.12971">
        <ele>3.5999999046326</ele>
        <time>2015-03-09T09:16:07.000Z</time>
      </trkpt>
      <trkpt lat="46.10531" lon="-1.12946">
        <ele>3.4000000953674</ele>
        <time>2015-03-09T09:16:19.000Z</time>
      </trkpt>
      <trkpt lat="46.10526" lon="-1.12919">
        <ele>3.2000000476837</ele>
        <time>2015-03-09T09:16:32.000Z</time>
      </trkpt>
      <trkpt lat="46.10517" lon="-1.12896">
        <ele>3</ele>
        <time>2015-03-09T09:16:44.000Z</time>
      </trkpt>
      <trkpt lat="46.10504" lon="-1.12878">
        <ele>3.4000000953674</ele>
        <time>2015-03-09T09:16:57.000Z</time>
      </trkpt>
      <trkpt lat="46.10491" lon="-1.12857">
        <ele>3.2000000476837</ele>
        <time>2015-03-09T09:17:10.000Z</time>
      </trkpt>
      <trkpt lat="46.10481" lon="-1.12835">
        <ele>2.5999999046326</ele>
        <time>2015-03-09T09:17:25.000Z</time>
      </trkpt>
      <trkpt lat="46.10468" lon="-1.12815">
        <ele>2.2000000476837</ele>
        <time>2015-03-09T09:17:44.000Z</time>
      </trkpt>
      <trkpt lat="46.10456" lon="-1.12795">
        <ele>2.2000000476837</ele>
        <time>2015-03-09T09:17:58.000Z</time>
      </trkpt>
      <trkpt lat="46.10443" lon="-1.12775">
        <ele>2.4000000953674</ele>
        <time>2015-03-09T09:18:12.000Z</time>
      </trkpt>
      <trkpt lat="46.10433" lon="-1.12763">
        <ele>2.5999999046326</ele>
        <time>2015-03-09T09:18:23.000Z</time>
      </trkpt>
      <trkpt lat="46.10433" lon="-1.12762">
        <ele>2.5999999046326</ele>
        <time>2015-03-09T09:18:26.000Z</time>
      </trkpt>
      <trkpt lat="46.10403" lon="-1.1273">
        <ele>3.7999999523163</ele>
        <time>2015-03-09T09:21:37.000Z</time>
      </trkpt>
      <trkpt lat="46.10402" lon="-1.12728">
        <ele>3.7999999523163</ele>
        <time>2015-03-09T09:21:38.000Z</time>
      </trkpt>
      <trkpt lat="46.10393" lon="-1.12706">
        <ele>3.7999999523163</ele>
        <time>2015-03-09T09:21:52.000Z</time>
      </trkpt>
      <trkpt lat="46.10387" lon="-1.12681">
        <ele>3.4000000953674</ele>
        <time>2015-03-09T09:22:05.000Z</time>
      </trkpt>
      <trkpt lat="46.10382" lon="-1.12654">
        <ele>3.2000000476837</ele>
        <time>2015-03-09T09:22:19.000Z</time>
      </trkpt>
      <trkpt lat="46.10381" lon="-1.12627">
        <ele>3.2000000476837</ele>
        <time>2015-03-09T09:22:33.000Z</time>
      </trkpt>
      <trkpt lat="46.1038" lon="-1.12608">
        <ele>3.2000000476837</ele>
        <time>2015-03-09T09:22:43.000Z</time>
      </trkpt>
      <trkpt lat="46.10379" lon="-1.12581">
        <ele>3.2000000476837</ele>
        <time>2015-03-09T09:22:57.000Z</time>
      </trkpt>
      <trkpt lat="46.10381" lon="-1.12573">
        <ele>3.2000000476837</ele>
        <time>2015-03-09T09:23:01.000Z</time>
      </trkpt>
      <trkpt lat="46.10386" lon="-1.12548">
        <ele>3</ele>
        <time>2015-03-09T09:23:12.000Z</time>
      </trkpt>
      <trkpt lat="46.10395" lon="-1.12524">
        <ele>2.5999999046326</ele>
        <time>2015-03-09T09:23:24.000Z</time>
      </trkpt>
      <trkpt lat="46.10409" lon="-1.12506">
        <ele>2.4000000953674</ele>
        <time>2015-03-09T09:23:37.000Z</time>
      </trkpt>
      <trkpt lat="46.10425" lon="-1.12494">
        <ele>2.2000000476837</ele>
        <time>2015-03-09T09:23:49.000Z</time>
      </trkpt>
      <trkpt lat="46.10439" lon="-1.12479">
        <ele>2</ele>
        <time>2015-03-09T09:24:01.000Z</time>
      </trkpt>
      <trkpt lat="46.10445" lon="-1.12453">
        <ele>2.2000000476837</ele>
        <time>2015-03-09T09:24:14.000Z</time>
      </trkpt>
      <trkpt lat="46.10451" lon="-1.12427">
        <ele>2.5999999046326</ele>
        <time>2015-03-09T09:24:27.000Z</time>
      </trkpt>
      <trkpt lat="46.10455" lon="-1.124">
        <ele>3</ele>
        <time>2015-03-09T09:24:40.000Z</time>
      </trkpt>
      <trkpt lat="46.10452" lon="-1.12375">
        <ele>3</ele>
        <time>2015-03-09T09:24:53.000Z</time>
      </trkpt>
      <trkpt lat="46.10454" lon="-1.12349">
        <ele>3</ele>
        <time>2015-03-09T09:25:06.000Z</time>
      </trkpt>
      <trkpt lat="46.10456" lon="-1.12323">
        <ele>3</ele>
        <time>2015-03-09T09:25:19.000Z</time>
      </trkpt>
      <trkpt lat="46.1046" lon="-1.12297">
        <ele>3.2000000476837</ele>
        <time>2015-03-09T09:25:31.000Z</time>
      </trkpt>
      <trkpt lat="46.10462" lon="-1.12269">
        <ele>3.2000000476837</ele>
        <time>2015-03-09T09:25:44.000Z</time>
      </trkpt>
      <trkpt lat="46.10464" lon="-1.12242">
        <ele>3.2000000476837</ele>
        <time>2015-03-09T09:25:57.000Z</time>
      </trkpt>
      <trkpt lat="46.10467" lon="-1.12214">
        <ele>3</ele>
        <time>2015-03-09T09:26:10.000Z</time>
      </trkpt>
      <trkpt lat="46.10467" lon="-1.12187">
        <ele>2.7999999523163</ele>
        <time>2015-03-09T09:26:24.000Z</time>
      </trkpt>
      <trkpt lat="46.10469" lon="-1.12161">
        <ele>2.4000000953674</ele>
        <time>2015-03-09T09:26:37.000Z</time>
      </trkpt>
      <trkpt lat="46.10469" lon="-1.12134">
        <ele>2.2000000476837</ele>
        <time>2015-03-09T09:26:50.000Z</time>
      </trkpt>
      <trkpt lat="46.10468" lon="-1.12106">
        <ele>2.4000000953674</ele>
        <time>2015-03-09T09:27:03.000Z</time>
      </trkpt>
      <trkpt lat="46.10468" lon="-1.1208">
        <ele>2.4000000953674</ele>
        <time>2015-03-09T09:27:16.000Z</time>
      </trkpt>
      <trkpt lat="46.10469" lon="-1.12052">
        <ele>2.4000000953674</ele>
        <time>2015-03-09T09:27:29.000Z</time>
      </trkpt>
      <trkpt lat="46.10469" lon="-1.12025">
        <ele>2.5999999046326</ele>
        <time>2015-03-09T09:27:42.000Z</time>
      </trkpt>
      <trkpt lat="46.10472" lon="-1.11999">
        <ele>3</ele>
        <time>2015-03-09T09:27:54.000Z</time>
      </trkpt>
      <trkpt lat="46.10474" lon="-1.11973">
        <ele>3</ele>
        <time>2015-03-09T09:28:07.000Z</time>
      </trkpt>
      <trkpt lat="46.10476" lon="-1.11946">
        <ele>3.4000000953674</ele>
        <time>2015-03-09T09:28:20.000Z</time>
      </trkpt>
      <trkpt lat="46.10481" lon="-1.11921">
        <ele>3.5999999046326</ele>
        <time>2015-03-09T09:28:33.000Z</time>
      </trkpt>
      <trkpt lat="46.1049" lon="-1.11899">
        <ele>3.5999999046326</ele>
        <time>2015-03-09T09:28:46.000Z</time>
      </trkpt>
      <trkpt lat="46.10507" lon="-1.11889">
        <ele>3.2000000476837</ele>
        <time>2015-03-09T09:28:59.000Z</time>
      </trkpt>
      <trkpt lat="46.10525" lon="-1.11884">
        <ele>2.7999999523163</ele>
        <time>2015-03-09T09:29:12.000Z</time>
      </trkpt>
      <trkpt lat="46.10542" lon="-1.11874">
        <ele>2.2000000476837</ele>
        <time>2015-03-09T09:29:24.000Z</time>
      </trkpt>
      <trkpt lat="46.10548" lon="-1.11866">
        <ele>2</ele>
        <time>2015-03-09T09:29:30.000Z</time>
      </trkpt>
      <trkpt lat="46.10551" lon="-1.11859">
        <ele>1.7999999523163</ele>
        <time>2015-03-09T09:29:35.000Z</time>
      </trkpt>
      <trkpt lat="46.10553" lon="-1.11854">
        <ele>1.7999999523163</ele>
        <time>2015-03-09T09:29:38.000Z</time>
      </trkpt>
      <trkpt lat="46.10558" lon="-1.11839">
        <ele>1.3999999761581</ele>
        <time>2015-03-09T09:29:46.000Z</time>
      </trkpt>
      <trkpt lat="46.10565" lon="-1.11814">
        <ele>1.2000000476837</ele>
        <time>2015-03-09T09:29:58.000Z</time>
      </trkpt>
      <trkpt lat="46.10571" lon="-1.11788">
        <ele>1.3999999761581</ele>
        <time>2015-03-09T09:30:11.000Z</time>
      </trkpt>
      <trkpt lat="46.10578" lon="-1.11762">
        <ele>1.7999999523163</ele>
        <time>2015-03-09T09:30:24.000Z</time>
      </trkpt>
      <trkpt lat="46.10584" lon="-1.11736">
        <ele>2.2000000476837</ele>
        <time>2015-03-09T09:30:37.000Z</time>
      </trkpt>
      <trkpt lat="46.10592" lon="-1.11711">
        <ele>2.5999999046326</ele>
        <time>2015-03-09T09:30:49.000Z</time>
      </trkpt>
      <trkpt lat="46.10599" lon="-1.11687">
        <ele>3</ele>
        <time>2015-03-09T09:31:01.000Z</time>
      </trkpt>
      <trkpt lat="46.10609" lon="-1.11665">
        <ele>3.2000000476837</ele>
        <time>2015-03-09T09:31:12.000Z</time>
      </trkpt>
      <trkpt lat="46.10621" lon="-1.11645">
        <ele>3.4000000953674</ele>
        <time>2015-03-09T09:31:23.000Z</time>
      </trkpt>
      <trkpt lat="46.10633" lon="-1.11625">
        <ele>3.7999999523163</ele>
        <time>2015-03-09T09:31:34.000Z</time>
      </trkpt>
      <trkpt lat="46.10646" lon="-1.11605">
        <ele>4</ele>
        <time>2015-03-09T09:31:46.000Z</time>
      </trkpt>
      <trkpt lat="46.10657" lon="-1.11585">
        <ele>4</ele>
        <time>2015-03-09T09:31:57.000Z</time>
      </trkpt>
      <trkpt lat="46.10672" lon="-1.11572">
        <ele>4</ele>
        <time>2015-03-09T09:32:08.000Z</time>
      </trkpt>
      <trkpt lat="46.10691" lon="-1.11572">
        <ele>4</ele>
        <time>2015-03-09T09:32:20.000Z</time>
      </trkpt>
      <trkpt lat="46.10709" lon="-1.11581">
        <ele>4</ele>
        <time>2015-03-09T09:32:33.000Z</time>
      </trkpt>
      <trkpt lat="46.10725" lon="-1.11596">
        <ele>3.2000000476837</ele>
        <time>2015-03-09T09:32:45.000Z</time>
      </trkpt>
      <trkpt lat="46.10742" lon="-1.11606">
        <ele>2.5999999046326</ele>
        <time>2015-03-09T09:32:56.000Z</time>
      </trkpt>
      <trkpt lat="46.10761" lon="-1.11609">
        <ele>2</ele>
        <time>2015-03-09T09:33:08.000Z</time>
      </trkpt>
      <trkpt lat="46.10778" lon="-1.11609">
        <ele>1.7999999523163</ele>
        <time>2015-03-09T09:33:22.000Z</time>
      </trkpt>
      <trkpt lat="46.10792" lon="-1.11627">
        <ele>1.3999999761581</ele>
        <time>2015-03-09T09:33:34.000Z</time>
      </trkpt>
      <trkpt lat="46.10806" lon="-1.11646">
        <ele>1</ele>
        <time>2015-03-09T09:33:46.000Z</time>
      </trkpt>
      <trkpt lat="46.10815" lon="-1.11668">
        <ele>1.3999999761581</ele>
        <time>2015-03-09T09:33:58.000Z</time>
      </trkpt>
      <trkpt lat="46.10821" lon="-1.11695">
        <ele>1.7999999523163</ele>
        <time>2015-03-09T09:34:09.000Z</time>
      </trkpt>
      <trkpt lat="46.10828" lon="-1.11719">
        <ele>2</ele>
        <time>2015-03-09T09:34:20.000Z</time>
      </trkpt>
      <trkpt lat="46.10842" lon="-1.11738">
        <ele>1.7999999523163</ele>
        <time>2015-03-09T09:34:32.000Z</time>
      </trkpt>
      <trkpt lat="46.10858" lon="-1.11748">
        <ele>1.7999999523163</ele>
        <time>2015-03-09T09:34:43.000Z</time>
      </trkpt>
      <trkpt lat="46.10878" lon="-1.11747">
        <ele>1.7999999523163</ele>
        <time>2015-03-09T09:34:55.000Z</time>
      </trkpt>
      <trkpt lat="46.10896" lon="-1.11742">
        <ele>2</ele>
        <time>2015-03-09T09:35:06.000Z</time>
      </trkpt>
      <trkpt lat="46.10914" lon="-1.1174">
        <ele>2.7999999523163</ele>
        <time>2015-03-09T09:35:17.000Z</time>
      </trkpt>
      <trkpt lat="46.10933" lon="-1.11742">
        <ele>3.4000000953674</ele>
        <time>2015-03-09T09:35:29.000Z</time>
      </trkpt>
      <trkpt lat="46.10947" lon="-1.1176">
        <ele>3.7999999523163</ele>
        <time>2015-03-09T09:35:41.000Z</time>
      </trkpt>
      <trkpt lat="46.10955" lon="-1.11784">
        <ele>3.7999999523163</ele>
        <time>2015-03-09T09:35:52.000Z</time>
      </trkpt>
      <trkpt lat="46.10964" lon="-1.11807">
        <ele>3.7999999523163</ele>
        <time>2015-03-09T09:36:03.000Z</time>
      </trkpt>
      <trkpt lat="46.10977" lon="-1.11826">
        <ele>3.7999999523163</ele>
        <time>2015-03-09T09:36:14.000Z</time>
      </trkpt>
      <trkpt lat="46.10992" lon="-1.11844">
        <ele>3.5999999046326</ele>
        <time>2015-03-09T09:36:26.000Z</time>
      </trkpt>
      <trkpt lat="46.11004" lon="-1.11864">
        <ele>3.4000000953674</ele>
        <time>2015-03-09T09:36:38.000Z</time>
      </trkpt>
      <trkpt lat="46.11013" lon="-1.11888">
        <ele>3.4000000953674</ele>
        <time>2015-03-09T09:36:50.000Z</time>
      </trkpt>
      <trkpt lat="46.11021" lon="-1.11914">
        <ele>3.7999999523163</ele>
        <time>2015-03-09T09:37:02.000Z</time>
      </trkpt>
      <trkpt lat="46.11026" lon="-1.11939">
        <ele>4</ele>
        <time>2015-03-09T09:37:14.000Z</time>
      </trkpt>
      <trkpt lat="46.11028" lon="-1.11966">
        <ele>4</ele>
        <time>2015-03-09T09:37:26.000Z</time>
      </trkpt>
      <trkpt lat="46.11032" lon="-1.11992">
        <ele>3.5999999046326</ele>
        <time>2015-03-09T09:37:37.000Z</time>
      </trkpt>
      <trkpt lat="46.11036" lon="-1.12019">
        <ele>2.7999999523163</ele>
        <time>2015-03-09T09:37:50.000Z</time>
      </trkpt>
      <trkpt lat="46.11045" lon="-1.12043">
        <ele>1.7999999523163</ele>
        <time>2015-03-09T09:38:01.000Z</time>
      </trkpt>
      <trkpt lat="46.11058" lon="-1.12063">
        <ele>1</ele>
        <time>2015-03-09T09:38:13.000Z</time>
      </trkpt>
      <trkpt lat="46.11074" lon="-1.12078">
        <ele>1.3999999761581</ele>
        <time>2015-03-09T09:38:25.000Z</time>
      </trkpt>
      <trkpt lat="46.1109" lon="-1.12093">
        <ele>1.7999999523163</ele>
        <time>2015-03-09T09:38:37.000Z</time>
      </trkpt>
      <trkpt lat="46.11107" lon="-1.12103">
        <ele>2</ele>
        <time>2015-03-09T09:38:49.000Z</time>
      </trkpt>
      <trkpt lat="46.11126" lon="-1.12106">
        <ele>2</ele>
        <time>2015-03-09T09:39:01.000Z</time>
      </trkpt>
      <trkpt lat="46.11146" lon="-1.12102">
        <ele>2</ele>
        <time>2015-03-09T09:39:13.000Z</time>
      </trkpt>
      <trkpt lat="46.11165" lon="-1.12104">
        <ele>1.7999999523163</ele>
        <time>2015-03-09T09:39:26.000Z</time>
      </trkpt>
      <trkpt lat="46.11183" lon="-1.12115">
        <ele>1.6000000238419</ele>
        <time>2015-03-09T09:39:38.000Z</time>
      </trkpt>
      <trkpt lat="46.11197" lon="-1.12133">
        <ele>1.3999999761581</ele>
        <time>2015-03-09T09:39:50.000Z</time>
      </trkpt>
      <trkpt lat="46.11209" lon="-1.12152">
        <ele>1.2000000476837</ele>
        <time>2015-03-09T09:40:02.000Z</time>
      </trkpt>
      <trkpt lat="46.11223" lon="-1.12172">
        <ele>1</ele>
        <time>2015-03-09T09:40:14.000Z</time>
      </trkpt>
      <trkpt lat="46.11236" lon="-1.12192">
        <ele>0.80000001192093</ele>
        <time>2015-03-09T09:40:26.000Z</time>
      </trkpt>
      <trkpt lat="46.11248" lon="-1.1221">
        <ele>0.80000001192093</ele>
        <time>2015-03-09T09:40:37.000Z</time>
      </trkpt>
      <trkpt lat="46.11261" lon="-1.12232">
        <ele>1.6000000238419</ele>
        <time>2015-03-09T09:40:50.000Z</time>
      </trkpt>
      <trkpt lat="46.11269" lon="-1.12256">
        <ele>2.2000000476837</ele>
        <time>2015-03-09T09:41:02.000Z</time>
      </trkpt>
      <trkpt lat="46.11269" lon="-1.1226">
        <ele>2.2000000476837</ele>
        <time>2015-03-09T09:41:04.000Z</time>
      </trkpt>
      <trkpt lat="46.11266" lon="-1.12267">
        <ele>2.4000000953674</ele>
        <time>2015-03-09T09:41:08.000Z</time>
      </trkpt>
      <trkpt lat="46.11272" lon="-1.1228">
        <ele>2.4000000953674</ele>
        <time>2015-03-09T09:41:15.000Z</time>
      </trkpt>
      <trkpt lat="46.11288" lon="-1.12296">
        <ele>2.2000000476837</ele>
        <time>2015-03-09T09:41:28.000Z</time>
      </trkpt>
      <trkpt lat="46.11288" lon="-1.12298">
        <ele>2.2000000476837</ele>
        <time>2015-03-09T09:41:29.000Z</time>
      </trkpt>
      <trkpt lat="46.1129" lon="-1.12306">
        <ele>2.2000000476837</ele>
        <time>2015-03-09T09:41:33.000Z</time>
      </trkpt>
      <trkpt lat="46.11301" lon="-1.12328">
        <ele>2.2000000476837</ele>
        <time>2015-03-09T09:41:44.000Z</time>
      </trkpt>
      <trkpt lat="46.11316" lon="-1.12344">
        <ele>2</ele>
        <time>2015-03-09T09:41:56.000Z</time>
      </trkpt>
      <trkpt lat="46.11316" lon="-1.12345">
        <ele>2</ele>
        <time>2015-03-09T09:41:57.000Z</time>
      </trkpt>
      <trkpt lat="46.1131" lon="-1.12356">
        <ele>2</ele>
        <time>2015-03-09T09:42:06.000Z</time>
      </trkpt>
      <trkpt lat="46.11297" lon="-1.12374">
        <ele>2.4000000953674</ele>
        <time>2015-03-09T09:42:18.000Z</time>
      </trkpt>
      <trkpt lat="46.113" lon="-1.12398">
        <ele>2.2000000476837</ele>
        <time>2015-03-09T09:42:30.000Z</time>
      </trkpt>
      <trkpt lat="46.11314" lon="-1.12415">
        <ele>2</ele>
        <time>2015-03-09T09:42:47.000Z</time>
      </trkpt>
      <trkpt lat="46.1133" lon="-1.12428">
        <ele>2</ele>
        <time>2015-03-09T09:43:02.000Z</time>
      </trkpt>
      <trkpt lat="46.11349" lon="-1.12429">
        <ele>2</ele>
        <time>2015-03-09T09:43:15.000Z</time>
      </trkpt>
      <trkpt lat="46.11368" lon="-1.12426">
        <ele>2</ele>
        <time>2015-03-09T09:43:28.000Z</time>
      </trkpt>
      <trkpt lat="46.11386" lon="-1.12419">
        <ele>2</ele>
        <time>2015-03-09T09:43:42.000Z</time>
      </trkpt>
      <trkpt lat="46.11405" lon="-1.12419">
        <ele>5</ele>
        <time>2015-03-09T09:43:54.000Z</time>
      </trkpt>
      <trkpt lat="46.11424" lon="-1.12416">
        <ele>5</ele>
        <time>2015-03-09T09:44:06.000Z</time>
      </trkpt>
      <trkpt lat="46.11443" lon="-1.12416">
        <ele>5</ele>
        <time>2015-03-09T09:44:19.000Z</time>
      </trkpt>
      <trkpt lat="46.11461" lon="-1.12416">
        <ele>5</ele>
        <time>2015-03-09T09:44:31.000Z</time>
      </trkpt>
      <trkpt lat="46.11479" lon="-1.12415">
        <ele>5</ele>
        <time>2015-03-09T09:44:43.000Z</time>
      </trkpt>
      <trkpt lat="46.11499" lon="-1.12414">
        <ele>5</ele>
        <time>2015-03-09T09:44:55.000Z</time>
      </trkpt>
      <trkpt lat="46.11517" lon="-1.12414">
        <ele>5</ele>
        <time>2015-03-09T09:45:07.000Z</time>
      </trkpt>
      <trkpt lat="46.11535" lon="-1.12414">
        <ele>5</ele>
        <time>2015-03-09T09:45:19.000Z</time>
      </trkpt>
      <trkpt lat="46.11555" lon="-1.12415">
        <ele>5</ele>
        <time>2015-03-09T09:45:32.000Z</time>
      </trkpt>
      <trkpt lat="46.11573" lon="-1.12416">
        <ele>5</ele>
        <time>2015-03-09T09:45:44.000Z</time>
      </trkpt>
      <trkpt lat="46.11593" lon="-1.12415">
        <ele>5</ele>
        <time>2015-03-09T09:45:56.000Z</time>
      </trkpt>
      <trkpt lat="46.11611" lon="-1.12417">
        <ele>5</ele>
        <time>2015-03-09T09:46:08.000Z</time>
      </trkpt>
      <trkpt lat="46.1163" lon="-1.12417">
        <ele>5</ele>
        <time>2015-03-09T09:46:20.000Z</time>
      </trkpt>
      <trkpt lat="46.11648" lon="-1.1242">
        <ele>5</ele>
        <time>2015-03-09T09:46:31.000Z</time>
      </trkpt>
      <trkpt lat="46.11667" lon="-1.12422">
        <ele>5</ele>
        <time>2015-03-09T09:46:43.000Z</time>
      </trkpt>
      <trkpt lat="46.11686" lon="-1.12423">
        <ele>5</ele>
        <time>2015-03-09T09:46:55.000Z</time>
      </trkpt>
      <trkpt lat="46.11704" lon="-1.12426">
        <ele>5</ele>
        <time>2015-03-09T09:47:06.000Z</time>
      </trkpt>
      <trkpt lat="46.11723" lon="-1.12429">
        <ele>5</ele>
        <time>2015-03-09T09:47:19.000Z</time>
      </trkpt>
      <trkpt lat="46.11741" lon="-1.12435">
        <ele>7</ele>
        <time>2015-03-09T09:47:31.000Z</time>
      </trkpt>
      <trkpt lat="46.11759" lon="-1.12436">
        <ele>7</ele>
        <time>2015-03-09T09:47:43.000Z</time>
      </trkpt>
      <trkpt lat="46.11778" lon="-1.1244">
        <ele>7</ele>
        <time>2015-03-09T09:47:55.000Z</time>
      </trkpt>
      <trkpt lat="46.11797" lon="-1.12444">
        <ele>7</ele>
        <time>2015-03-09T09:48:07.000Z</time>
      </trkpt>
      <trkpt lat="46.11816" lon="-1.12448">
        <ele>7</ele>
        <time>2015-03-09T09:48:20.000Z</time>
      </trkpt>
      <trkpt lat="46.11835" lon="-1.12452">
        <ele>7</ele>
        <time>2015-03-09T09:48:32.000Z</time>
      </trkpt>
      <trkpt lat="46.11853" lon="-1.12456">
        <ele>7</ele>
        <time>2015-03-09T09:48:44.000Z</time>
      </trkpt>
      <trkpt lat="46.11871" lon="-1.1246">
        <ele>7</ele>
        <time>2015-03-09T09:48:56.000Z</time>
      </trkpt>
      <trkpt lat="46.1189" lon="-1.12463">
        <ele>7</ele>
        <time>2015-03-09T09:49:08.000Z</time>
      </trkpt>
      <trkpt lat="46.11908" lon="-1.12466">
        <ele>5.8000001907349</ele>
        <time>2015-03-09T09:49:20.000Z</time>
      </trkpt>
      <trkpt lat="46.11926" lon="-1.1247">
        <ele>6</ele>
        <time>2015-03-09T09:49:31.000Z</time>
      </trkpt>
      <trkpt lat="46.11945" lon="-1.12474">
        <ele>6</ele>
        <time>2015-03-09T09:49:43.000Z</time>
      </trkpt>
      <trkpt lat="46.11963" lon="-1.12479">
        <ele>5</ele>
        <time>2015-03-09T09:49:55.000Z</time>
      </trkpt>
      <trkpt lat="46.11981" lon="-1.12482">
        <ele>5</ele>
        <time>2015-03-09T09:50:06.000Z</time>
      </trkpt>
      <trkpt lat="46.11999" lon="-1.12487">
        <ele>5</ele>
        <time>2015-03-09T09:50:17.000Z</time>
      </trkpt>
      <trkpt lat="46.12018" lon="-1.12494">
        <ele>5</ele>
        <time>2015-03-09T09:50:29.000Z</time>
      </trkpt>
      <trkpt lat="46.12035" lon="-1.12501">
        <ele>5</ele>
        <time>2015-03-09T09:50:40.000Z</time>
      </trkpt>
      <trkpt lat="46.12054" lon="-1.12508">
        <ele>5</ele>
        <time>2015-03-09T09:50:52.000Z</time>
      </trkpt>
      <trkpt lat="46.12072" lon="-1.12516">
        <ele>6</ele>
        <time>2015-03-09T09:51:03.000Z</time>
      </trkpt>
      <trkpt lat="46.1209" lon="-1.12524">
        <ele>6</ele>
        <time>2015-03-09T09:51:14.000Z</time>
      </trkpt>
      <trkpt lat="46.12109" lon="-1.12531">
        <ele>6</ele>
        <time>2015-03-09T09:51:26.000Z</time>
      </trkpt>
      <trkpt lat="46.12128" lon="-1.12534">
        <ele>6</ele>
        <time>2015-03-09T09:51:37.000Z</time>
      </trkpt>
      <trkpt lat="46.12146" lon="-1.1254">
        <ele>5.1999998092651</ele>
        <time>2015-03-09T09:51:49.000Z</time>
      </trkpt>
      <trkpt lat="46.12165" lon="-1.12546">
        <ele>4.8000001907349</ele>
        <time>2015-03-09T09:52:01.000Z</time>
      </trkpt>
      <trkpt lat="46.12183" lon="-1.12552">
        <ele>5</ele>
        <time>2015-03-09T09:52:12.000Z</time>
      </trkpt>
      <trkpt lat="46.122" lon="-1.12559">
        <ele>5</ele>
        <time>2015-03-09T09:52:23.000Z</time>
      </trkpt>
      <trkpt lat="46.12219" lon="-1.12567">
        <ele>5</ele>
        <time>2015-03-09T09:52:35.000Z</time>
      </trkpt>
      <trkpt lat="46.12237" lon="-1.12573">
        <ele>3</ele>
        <time>2015-03-09T09:52:46.000Z</time>
      </trkpt>
      <trkpt lat="46.12255" lon="-1.1258">
        <ele>3</ele>
        <time>2015-03-09T09:52:57.000Z</time>
      </trkpt>
      <trkpt lat="46.12272" lon="-1.12589">
        <ele>3</ele>
        <time>2015-03-09T09:53:08.000Z</time>
      </trkpt>
      <trkpt lat="46.1229" lon="-1.12598">
        <ele>3</ele>
        <time>2015-03-09T09:53:19.000Z</time>
      </trkpt>
      <trkpt lat="46.12308" lon="-1.12608">
        <ele>3</ele>
        <time>2015-03-09T09:53:31.000Z</time>
      </trkpt>
      <trkpt lat="46.12327" lon="-1.12616">
        <ele>3.2000000476837</ele>
        <time>2015-03-09T09:53:42.000Z</time>
      </trkpt>
      <trkpt lat="46.12345" lon="-1.12624">
        <ele>3.2000000476837</ele>
        <time>2015-03-09T09:53:53.000Z</time>
      </trkpt>
      <trkpt lat="46.12362" lon="-1.12631">
        <ele>3.2000000476837</ele>
        <time>2015-03-09T09:54:04.000Z</time>
      </trkpt>
      <trkpt lat="46.12381" lon="-1.12638">
        <ele>3</ele>
        <time>2015-03-09T09:54:15.000Z</time>
      </trkpt>
      <trkpt lat="46.12399" lon="-1.12648">
        <ele>4</ele>
        <time>2015-03-09T09:54:28.000Z</time>
      </trkpt>
      <trkpt lat="46.12417" lon="-1.12656">
        <ele>4</ele>
        <time>2015-03-09T09:54:40.000Z</time>
      </trkpt>
      <trkpt lat="46.12436" lon="-1.12663">
        <ele>4</ele>
        <time>2015-03-09T09:54:52.000Z</time>
      </trkpt>
      <trkpt lat="46.12455" lon="-1.12668">
        <ele>4</ele>
        <time>2015-03-09T09:55:04.000Z</time>
      </trkpt>
      <trkpt lat="46.12473" lon="-1.12673">
        <ele>4</ele>
        <time>2015-03-09T09:55:16.000Z</time>
      </trkpt>
      <trkpt lat="46.12492" lon="-1.12678">
        <ele>3.4000000953674</ele>
        <time>2015-03-09T09:55:28.000Z</time>
      </trkpt>
      <trkpt lat="46.1251" lon="-1.12686">
        <ele>3.2000000476837</ele>
        <time>2015-03-09T09:55:40.000Z</time>
      </trkpt>
      <trkpt lat="46.12527" lon="-1.12692">
        <ele>3</ele>
        <time>2015-03-09T09:55:52.000Z</time>
      </trkpt>
      <trkpt lat="46.12546" lon="-1.1269">
        <ele>3</ele>
        <time>2015-03-09T09:56:05.000Z</time>
      </trkpt>
      <trkpt lat="46.12565" lon="-1.12692">
        <ele>2.4000000953674</ele>
        <time>2015-03-09T09:56:22.000Z</time>
      </trkpt>
      <trkpt lat="46.12584" lon="-1.12695">
        <ele>1.7999999523163</ele>
        <time>2015-03-09T09:56:37.000Z</time>
      </trkpt>
      <trkpt lat="46.126" lon="-1.12706">
        <ele>2</ele>
        <time>2015-03-09T09:56:49.000Z</time>
      </trkpt>
      <trkpt lat="46.12606" lon="-1.12711">
        <ele>2.2000000476837</ele>
        <time>2015-03-09T09:56:54.000Z</time>
      </trkpt>
      <trkpt lat="46.12623" lon="-1.12725">
        <ele>2.5999999046326</ele>
        <time>2015-03-09T09:57:09.000Z</time>
      </trkpt>
      <trkpt lat="46.12639" lon="-1.1274">
        <ele>3</ele>
        <time>2015-03-09T09:57:23.000Z</time>
      </trkpt>
      <trkpt lat="46.12655" lon="-1.12751">
        <ele>3.4000000953674</ele>
        <time>2015-03-09T09:57:38.000Z</time>
      </trkpt>
      <trkpt lat="46.12671" lon="-1.12765">
        <ele>3.7999999523163</ele>
        <time>2015-03-09T09:57:52.000Z</time>
      </trkpt>
      <trkpt lat="46.12687" lon="-1.12781">
        <ele>4</ele>
        <time>2015-03-09T09:58:07.000Z</time>
      </trkpt>
      <trkpt lat="46.12702" lon="-1.12798">
        <ele>4</ele>
        <time>2015-03-09T09:58:22.000Z</time>
      </trkpt>
      <trkpt lat="46.12705" lon="-1.12801">
        <ele>4</ele>
        <time>2015-03-09T09:58:27.000Z</time>
      </trkpt>
      <trkpt lat="46.12713" lon="-1.12801">
        <ele>4</ele>
        <time>2015-03-09T09:58:36.000Z</time>
      </trkpt>
      <trkpt lat="46.12718" lon="-1.12801">
        <ele>4</ele>
        <time>2015-03-09T09:58:44.000Z</time>
      </trkpt>
      <trkpt lat="46.12721" lon="-1.12806">
        <ele>4</ele>
        <time>2015-03-09T10:00:07.000Z</time>
      </trkpt>
      <trkpt lat="46.12721" lon="-1.12806">
        <ele>4</ele>
        <time>2015-03-09T10:00:08.000Z</time>
      </trkpt>
      <trkpt lat="46.12719" lon="-1.12807">
        <ele>4</ele>
        <time>2015-03-09T10:00:40.000Z</time>
      </trkpt>
      <trkpt lat="46.12719" lon="-1.12807">
        <ele>4</ele>
        <time>2015-03-09T10:00:41.000Z</time>
      </trkpt>
      <trkpt lat="46.12726" lon="-1.12814">
        <ele>4</ele>
        <time>2015-03-09T10:00:48.000Z</time>
      </trkpt>
      <trkpt lat="46.12726" lon="-1.12815">
        <ele>4</ele>
        <time>2015-03-09T10:00:49.000Z</time>
      </trkpt>
      <trkpt lat="46.12735" lon="-1.12821">
        <ele>3.7999999523163</ele>
        <time>2015-03-09T10:00:59.000Z</time>
      </trkpt>
      <trkpt lat="46.12735" lon="-1.12822">
        <ele>3.7999999523163</ele>
        <time>2015-03-09T10:01:02.000Z</time>
      </trkpt>
    </trkseg>
  </trk>
</gpx>